Edwardsville, KS

7:25 AM CDT on October 15, 2019 (GMT -0500)
Lake of the Forest | | Change Station
Active Advisory: Flood Warning

Elev 928 ft 39.07 °N, 94.84 °W | Updated 1 minute ago

Overcast
Overcast
63.5 °F
Feels Like 63.5 °F
N
0.2
Wind Variable Wind from North
Gusts 1.1 mph

Today
High -- | Low -- °F
--% Chance of Precip.
Yesterday
High -- | Low -- °F
Precip. -- in
Pressure 29.86 in
Visibility 10.0 miles
Clouds Overcast 1600 ft
Dew Point 61 °F
Humidity 91%
Rainfall 0.00 in
Snow Depth Not available.
7:28 AM 6:40 PM
Full, 97% visible
METAR KMKC 151154Z 24008KT 10SM OVC016 18/15 A2987 RMK AO2 SLP110 T01830150 10183 20161 53015
Pressure 29.86 in
Visibility 10.0 miles
Clouds Overcast 1600 ft
Dew Point 61 °F
Humidity 91%
Rainfall 0.00 in
Snow Depth Not available.
7:28 AM 6:40 PM
Full, 97% visible
METAR KMKC 151154Z 24008KT 10SM OVC016 18/15 A2987 RMK AO2 SLP110 T01830150 10183 20161 53015

Get Your Daily Forecast Email!

Thanks for signing up!

Be on the lookout for a verification email in your inbox.

You'll start receiving severe weather alerts in your inbox..

×

10-Day Weather Forecast

Almanac

Astronomy

Oct. 15, 2019 Rise Set
Actual Time
Civil Twilight
Nautical Twilight
Astronomical Twilight
Moon
Length of Visible Light
Length of Day
Tomorrow will be .
, % of the Moon is Illuminated

Today's Extremes

State Highs State Lows

Community

WunderPhotos

Category 6

Welcome to Category 6. This is the collective home for Weather Underground's featured writeups by Dr. Jeff Masters (right), Bob Henson (left), Chris Burt, and other regular contributors.

Nearby

Air Quality

  Air Quality AQ Index Pollutant
Not available.

Snow Depth

Station Depth Elevation

Earthquake Activity

City Distance Mag. Time & Date
Minimum magnitude displayed is 2.5.

Coastal Water Temperatures

Place Temperature

Stations

Nearby Weather Stations

Station Location Temp. Windchill Dew Point Humidity Wind Precip. Elev Updated Type
                   

Watches & Warnings

Flood Warning
Issued: 9:43 AM CDT Oct. 14, 2019 – National Weather Service

The Flood Warning continues for
the Missouri River at Parkville.
* Until Wednesday morning.
* At 8:45 am Monday the stage was 24.9 feet.
* Flood stage is 25.0 feet.
* Minor flooding is forecast.
* Forecast... rise above flood stage by this afternoon and continue to
rise to near 25.1 feet by this evening. The river will fall below
flood stage by Tuesday morning.
* At 24.0 feet... backwater floods a low-water bridge along White
Branch at McAfee street in Parkville.

                       Latest
location fs stage day/time forecast

Missouri River
Parkville 25 24.9 Mon 09 am 25.1 this evening


lat... Lon 3931 9477 3918 9460 3912 9461 3916 9481 3924 9490